Latest METARs, TAFs and NOTAMs for MNMG


---------------------------------------------------------------------------
	(OBSERVATIONS)
MNMG 260000Z 14006KT 8000 FEW020CB SCT070 28/24 Q1007 A2975 CB
    NE/E/SE/S/SW/NW FU NOSIG=
MNMG 252200Z 09006KT 6000 VCRA FEW014CB SCT016 29/27 Q1007 CBRA/N/NW=
---------------------------------------------------------------------------
	(TERMINAL AREA FORECAST)
MNMG 252117Z 2500/2624 25006KT 7000 -TS FEW020CB SCT070
    PROB30 TEMPO 2603/2610 VRB06KT 7000 DZ/VCRA=
---------------------------------------------------------------------------
	(NOTAMS)


MNMG A0666/18 SANDINO APP PERSONNEL ON TRAINING UNDER SUPERVISION.
    0300 - 2359, 09 APR 03:00 2018 UNTIL 09 JUL 23:59 2018. CREATED:
    09 APR 02:14 2018

---------------------------------------------------------------------------